createdAt,value
2022-08-05T00:02:07.992Z,18.70
2022-08-05T00:04:38.395Z,18.68
2022-08-05T00:07:21.767Z,18.72
2022-08-05T00:09:53.534Z,18.80
2022-08-05T00:12:22.048Z,18.73
2022-08-05T00:14:48.481Z,18.64
2022-08-05T00:17:18.650Z,18.63
2022-08-05T00:20:02.057Z,18.53
2022-08-05T00:22:29.719Z,18.42
2022-08-05T00:24:57.496Z,18.43
2022-08-05T00:27:28.383Z,18.35
2022-08-05T00:30:03.529Z,18.33
2022-08-05T00:32:29.938Z,18.41
2022-08-05T00:35:06.203Z,18.43
2022-08-05T00:37:51.322Z,18.41
2022-08-05T00:40:28.168Z,18.18
2022-08-05T00:42:57.968Z,18.19
2022-08-05T00:45:37.861Z,18.34
2022-08-05T00:48:07.912Z,18.27
2022-08-05T00:50:34.318Z,18.39
2022-08-05T00:53:02.131Z,18.34
2022-08-05T00:55:42.281Z,18.31
2022-08-05T00:58:14.519Z,18.25
2022-08-05T01:00:42.067Z,18.28
2022-08-05T01:03:10.530Z,18.31
2022-08-05T01:05:49.292Z,18.36
2022-08-05T01:08:40.188Z,18.28
2022-08-05T01:11:13.764Z,18.28
2022-08-05T01:13:58.967Z,18.31
2022-08-05T01:16:40.902Z,18.27
2022-08-05T01:19:16.039Z,18.27
2022-08-05T01:22:01.515Z,18.30
2022-08-05T01:24:50.642Z,18.26
2022-08-05T01:27:26.510Z,18.29
2022-08-05T01:29:58.172Z,18.38
2022-08-05T01:32:29.314Z,18.45
2022-08-05T01:35:01.279Z,18.48
2022-08-05T01:37:49.103Z,18.40
2022-08-05T01:40:18.147Z,18.33
2022-08-05T01:42:45.888Z,18.24
2022-08-05T01:45:16.488Z,18.26
2022-08-05T01:47:47.842Z,18.20
2022-08-05T01:50:28.620Z,18.14
2022-08-05T01:53:05.339Z,17.99
2022-08-05T01:55:36.477Z,17.78
2022-08-05T01:58:15.083Z,17.74
2022-08-05T02:00:47.040Z,17.66
2022-08-05T02:03:34.183Z,17.50
2022-08-05T02:06:03.566Z,17.55
2022-08-05T02:08:58.639Z,17.59
2022-08-05T02:11:33.671Z,17.63
2022-08-05T02:14:05.235Z,17.64
2022-08-05T02:16:41.775Z,17.56
2022-08-05T02:19:34.381Z,17.45
2022-08-05T02:22:25.513Z,17.41
2022-08-05T02:25:02.184Z,17.45
2022-08-05T02:27:57.670Z,17.43
2022-08-05T02:30:19.570Z,17.54
2022-08-05T02:32:51.048Z,17.46
2022-08-05T02:35:27.681Z,17.41
2022-08-05T02:37:56.759Z,17.42
2022-08-05T02:40:29.766Z,17.37
2022-08-05T02:42:56.966Z,17.39
2022-08-05T02:45:26.597Z,17.28
2022-08-05T02:48:06.670Z,17.12
2022-08-05T02:50:43.790Z,17.18
2022-08-05T02:53:18.746Z,17.51
2022-08-05T02:55:54.984Z,17.53
2022-08-05T02:58:29.998Z,17.52
2022-08-05T03:00:58.677Z,17.44
2022-08-05T03:03:28.150Z,17.52
2022-08-05T03:06:55.042Z,17.63
2022-08-05T03:08:52.235Z,17.49
2022-08-05T03:11:56.453Z,17.39
2022-08-05T03:14:08.666Z,17.34
2022-08-05T03:16:40.024Z,17.29
2022-08-05T03:19:12.867Z,17.30
2022-08-05T03:21:49.611Z,17.50
2022-08-05T03:24:27.529Z,17.68
2022-08-05T03:26:56.703Z,17.77
2022-08-05T03:29:23.930Z,17.77
2022-08-05T03:31:57.173Z,17.59
2022-08-05T03:34:28.831Z,17.71
2022-08-05T03:36:55.353Z,17.80
2022-08-05T03:39:27.029Z,17.82
2022-08-05T03:41:56.317Z,17.87
2022-08-05T03:44:23.408Z,17.91
2022-08-05T03:46:49.908Z,17.82
2022-08-05T03:49:16.724Z,17.77
2022-08-05T03:52:36.559Z,17.59
2022-08-05T03:55:52.078Z,17.10
2022-08-05T03:57:45.887Z,17.65
2022-08-05T04:00:16.395Z,17.93
2022-08-05T04:02:58.092Z,17.87
2022-08-05T04:05:33.629Z,17.97
2022-08-05T04:08:05.637Z,18.07
2022-08-05T04:10:42.837Z,18.17
2022-08-05T04:13:09.365Z,18.37
2022-08-05T04:15:36.826Z,18.71
2022-08-05T04:18:06.777Z,18.77
2022-08-05T04:20:34.812Z,18.63
2022-08-05T04:23:01.338Z,18.63
2022-08-05T04:25:57.425Z,18.43
2022-08-05T04:28:14.620Z,18.67
2022-08-05T04:30:41.497Z,18.67
2022-08-05T04:33:09.586Z,18.72
2022-08-05T04:36:10.634Z,18.81
2022-08-05T04:38:22.842Z,18.79
2022-08-05T04:41:07.311Z,18.82
2022-08-05T04:43:36.279Z,19.06
2022-08-05T04:46:04.468Z,19.16
2022-08-05T04:48:31.816Z,19.25
2022-08-05T04:51:03.674Z,19.41
2022-08-05T04:53:38.878Z,19.67
2022-08-05T04:56:33.364Z,19.92
2022-08-05T04:58:54.211Z,20.20
2022-08-05T05:01:33.688Z,20.48
2022-08-05T05:04:07.560Z,20.65
2022-08-05T05:06:36.068Z,20.67
2022-08-05T05:09:16.837Z,20.83
2022-08-05T05:11:53.123Z,20.87
2022-08-05T05:14:31.741Z,20.69
2022-08-05T05:17:03.320Z,20.54
2022-08-05T05:19:36.765Z,20.66
2022-08-05T05:22:24.411Z,20.49
2022-08-05T05:24:57.842Z,20.55
2022-08-05T05:27:44.415Z,20.75
2022-08-05T05:30:15.465Z,20.87
2022-08-05T05:32:55.904Z,20.96
2022-08-05T05:35:22.918Z,20.96
2022-08-05T05:38:00.140Z,21.12
2022-08-05T05:40:29.586Z,21.35
2022-08-05T05:42:57.059Z,21.29
2022-08-05T05:45:24.750Z,21.29
2022-08-05T05:48:06.094Z,21.69
2022-08-05T05:50:43.835Z,21.92
2022-08-05T05:53:22.111Z,21.92
2022-08-05T05:55:51.744Z,22.04
2022-08-05T05:58:32.105Z,22.36
2022-08-05T06:01:13.011Z,22.50
2022-08-05T06:04:00.700Z,22.38
2022-08-05T06:06:30.848Z,22.54
2022-08-05T06:08:58.094Z,22.53
2022-08-05T06:11:24.625Z,22.62
2022-08-05T06:13:54.118Z,22.68
2022-08-05T06:16:29.496Z,22.58
2022-08-05T06:19:00.064Z,22.60
2022-08-05T06:21:37.183Z,22.80
2022-08-05T06:24:11.279Z,22.90
2022-08-05T06:26:51.006Z,23.08
2022-08-05T06:29:25.389Z,23.61
2022-08-05T06:32:25.013Z,24.95
2022-08-05T06:34:53.634Z,25.27
2022-08-05T06:37:57.342Z,26.00
2022-08-05T06:40:11.072Z,26.92
2022-08-05T06:42:39.701Z,27.39
2022-08-05T06:45:08.370Z,27.61
2022-08-05T06:48:36.777Z,27.29
2022-08-05T06:50:22.581Z,27.51
2022-08-05T06:52:58.625Z,27.58
2022-08-05T06:55:30.481Z,28.48
2022-08-05T06:58:30.085Z,28.57
2022-08-05T07:00:50.075Z,29.89
2022-08-05T07:03:16.721Z,29.09
2022-08-05T07:05:43.395Z,28.44
2022-08-05T07:08:10.849Z,27.08
2022-08-05T07:10:38.003Z,26.60
2022-08-05T07:13:56.823Z,25.31
2022-08-05T07:17:58.539Z,24.84
2022-08-05T07:19:16.069Z,26.02
2022-08-05T07:22:02.603Z,27.40
2022-08-05T07:24:29.898Z,27.16
2022-08-05T07:26:56.964Z,28.29
2022-08-05T07:29:25.456Z,28.65
2022-08-05T07:32:12.807Z,28.57
2022-08-05T07:34:42.469Z,29.75
2022-08-05T07:37:11.739Z,29.66
2022-08-05T07:40:04.441Z,28.87
2022-08-05T07:42:33.806Z,29.11
2022-08-05T07:45:03.579Z,28.16
2022-08-05T07:47:42.249Z,29.27
2022-08-05T07:50:10.062Z,29.36
2022-08-05T07:52:40.847Z,30.81
2022-08-05T07:55:15.870Z,30.51
2022-08-05T07:58:02.358Z,28.77
2022-08-05T08:00:30.140Z,27.78
2022-08-05T08:03:15.307Z,26.95
2022-08-05T08:05:49.828Z,27.43
2022-08-05T08:08:17.064Z,28.08
2022-08-05T08:10:48.915Z,27.80
2022-08-05T08:13:22.133Z,27.94
2022-08-05T08:16:35.144Z,27.13
2022-08-05T08:18:42.439Z,28.21
2022-08-05T08:21:17.735Z,29.54
2022-08-05T08:24:03.164Z,29.30
2022-08-05T08:26:31.227Z,30.77
2022-08-05T08:29:02.413Z,31.56
2022-08-05T08:31:47.596Z,31.22
2022-08-05T08:34:15.218Z,30.11
2022-08-05T08:36:48.827Z,29.60
2022-08-05T08:39:19.854Z,31.39
2022-08-05T08:41:51.180Z,30.92
2022-08-05T08:45:19.917Z,32.34
2022-08-05T08:47:21.780Z,32.69
2022-08-05T08:50:05.774Z,33.58
2022-08-05T08:53:01.677Z,33.13
2022-08-05T08:56:04.280Z,33.14
2022-08-05T08:58:37.104Z,33.56
2022-08-05T09:01:15.981Z,33.54
2022-08-05T09:03:45.760Z,33.34
2022-08-05T09:06:15.812Z,33.30
2022-08-05T09:08:45.303Z,32.46
2022-08-05T09:11:13.980Z,33.89
2022-08-05T09:14:10.133Z,33.90
2022-08-05T09:16:28.631Z,31.77
2022-08-05T09:18:55.873Z,31.91
2022-08-05T09:22:17.946Z,32.97
2022-08-05T09:24:15.419Z,33.37
2022-08-05T09:26:43.745Z,33.57
2022-08-05T09:29:11.102Z,31.56
2022-08-05T09:32:41.455Z,32.02
2022-08-05T09:34:53.625Z,32.31
2022-08-05T09:38:17.763Z,33.22
2022-08-05T09:40:10.129Z,33.36
2022-08-05T09:42:41.020Z,33.62
2022-08-05T09:46:05.302Z,33.73
2022-08-05T09:47:56.761Z,33.29
2022-08-05T09:50:38.585Z,32.88
2022-08-05T09:53:23.176Z,34.21
2022-08-05T09:56:04.786Z,35.06
2022-08-05T09:58:39.190Z,35.34
2022-08-05T10:01:14.833Z,35.03
2022-08-05T10:04:00.633Z,33.71
2022-08-05T10:06:28.038Z,34.26
2022-08-05T10:08:55.749Z,35.14
2022-08-05T10:11:23.306Z,35.64
2022-08-05T10:13:49.862Z,36.31
2022-08-05T10:16:28.874Z,35.64
2022-08-05T10:18:56.800Z,34.82
2022-08-05T10:21:24.131Z,35.35
2022-08-05T10:23:59.220Z,35.00
2022-08-05T10:26:31.684Z,34.98
2022-08-05T10:29:00.694Z,33.43
2022-08-05T10:33:02.202Z,33.35
2022-08-05T10:34:14.398Z,35.69
2022-08-05T10:36:44.672Z,36.75
2022-08-05T10:39:24.847Z,37.10
2022-08-05T10:42:33.349Z,36.53
2022-08-05T10:45:01.437Z,38.32
2022-08-05T10:47:37.149Z,35.25
2022-08-05T10:50:31.690Z,33.15
2022-08-05T10:53:01.767Z,34.30
2022-08-05T10:55:38.543Z,35.40
2022-08-05T10:58:17.992Z,34.21
2022-08-05T11:00:48.556Z,35.82
2022-08-05T11:03:24.858Z,36.78
2022-08-05T11:06:15.651Z,37.05
2022-08-05T11:09:31.950Z,36.14
2022-08-05T11:12:26.929Z,35.23
2022-08-05T11:16:00.825Z,33.68
2022-08-05T11:18:34.017Z,32.98
2022-08-05T11:21:02.629Z,31.72
2022-08-05T11:23:33.615Z,31.22
2022-08-05T11:26:17.043Z,31.30
2022-08-05T11:28:56.099Z,31.96
2022-08-05T11:31:58.705Z,34.08
2022-08-05T11:34:37.027Z,34.56
2022-08-05T11:38:14.307Z,35.05
2022-08-05T11:40:00.535Z,37.32
2022-08-05T11:42:33.092Z,36.21
2022-08-05T11:45:27.055Z,36.26
2022-08-05T11:47:55.066Z,38.07
2022-08-05T11:50:22.927Z,38.91
2022-08-05T11:52:52.073Z,36.79
2022-08-05T11:55:20.951Z,33.74
2022-08-05T11:58:10.087Z,34.58
2022-08-05T12:00:38.362Z,36.72
2022-08-05T12:03:29.105Z,36.98
2022-08-05T12:06:05.885Z,37.68
2022-08-05T12:08:50.009Z,37.23
2022-08-05T12:11:23.311Z,37.59
2022-08-05T12:14:04.024Z,38.09
2022-08-05T12:16:38.571Z,32.66
2022-08-05T12:19:08.290Z,34.41
2022-08-05T12:21:39.231Z,37.22
2022-08-05T12:24:14.208Z,36.75
2022-08-05T12:26:47.310Z,35.89
2022-08-05T12:29:22.742Z,34.79
2022-08-05T12:32:02.018Z,32.74
2022-08-05T12:34:37.260Z,31.67
2022-08-05T12:37:16.956Z,31.09
2022-08-05T12:39:44.932Z,32.92
2022-08-05T12:42:20.375Z,33.74
2022-08-05T12:44:47.748Z,33.15
2022-08-05T12:47:26.561Z,34.05
2022-08-05T12:50:04.071Z,37.19
2022-08-05T12:52:39.468Z,38.11
2022-08-05T12:55:22.036Z,38.86
2022-08-05T12:58:52.741Z,38.91
2022-08-05T13:02:01.239Z,38.35
2022-08-05T13:03:32.327Z,36.96
2022-08-05T13:05:59.035Z,36.40
2022-08-05T13:08:32.217Z,36.18
2022-08-05T13:11:00.675Z,35.87
2022-08-05T13:14:06.217Z,35.09
2022-08-05T13:16:16.756Z,36.47
2022-08-05T13:18:55.271Z,37.37
2022-08-05T13:21:28.474Z,37.96
2022-08-05T13:24:06.219Z,37.82
2022-08-05T13:26:35.711Z,38.47
2022-08-05T13:29:02.081Z,37.13
2022-08-05T13:32:03.780Z,36.49
2022-08-05T13:34:25.095Z,35.70
2022-08-05T13:36:55.216Z,36.37
2022-08-05T13:40:12.758Z,36.50
2022-08-05T13:42:14.658Z,35.34
2022-08-05T13:44:45.686Z,34.22
2022-08-05T13:47:34.557Z,34.84
2022-08-05T13:50:01.280Z,36.47
2022-08-05T13:52:31.624Z,37.29
2022-08-05T13:55:07.346Z,34.47
2022-08-05T13:57:48.571Z,34.15
2022-08-05T14:00:17.556Z,31.94
2022-08-05T14:02:43.961Z,33.72
2022-08-05T14:05:11.996Z,34.54
2022-08-05T14:07:59.994Z,34.25
2022-08-05T14:10:31.290Z,34.41
2022-08-05T14:12:59.560Z,34.87
2022-08-05T14:16:07.117Z,34.45
2022-08-05T14:18:18.355Z,34.40
2022-08-05T14:20:54.414Z,35.67
2022-08-05T14:23:25.456Z,36.51
2022-08-05T14:25:54.534Z,36.19
2022-08-05T14:28:27.103Z,34.24
2022-08-05T14:30:54.988Z,32.61
2022-08-05T14:33:22.612Z,34.20
2022-08-05T14:35:52.067Z,34.95
2022-08-05T14:38:33.275Z,36.01
2022-08-05T14:41:07.520Z,35.95
2022-08-05T14:44:01.594Z,35.18
2022-08-05T14:46:28.261Z,35.16
2022-08-05T14:48:55.849Z,33.11
2022-08-05T14:51:23.916Z,34.07
2022-08-05T14:54:27.464Z,33.97
2022-08-05T14:56:38.169Z,33.63
2022-08-05T14:59:11.360Z,33.39
2022-08-05T15:01:48.072Z,33.57
2022-08-05T15:04:15.899Z,32.65
2022-08-05T15:06:49.373Z,33.04
2022-08-05T15:09:16.299Z,32.40
2022-08-05T15:12:03.947Z,32.46
2022-08-05T15:14:34.719Z,33.05
2022-08-05T15:17:09.668Z,31.98
2022-08-05T15:19:40.905Z,32.46
2022-08-05T15:22:16.569Z,32.54
2022-08-05T15:24:44.679Z,32.48
2022-08-05T15:27:11.927Z,32.63
2022-08-05T15:29:42.200Z,33.00
2022-08-05T15:32:08.687Z,33.59
2022-08-05T15:34:35.413Z,33.32
2022-08-05T15:37:06.323Z,33.57
2022-08-05T15:40:58.700Z,33.86
2022-08-05T15:42:54.365Z,33.62
2022-08-05T15:45:07.793Z,33.48
2022-08-05T15:47:37.100Z,33.38
2022-08-05T15:50:07.254Z,33.59
2022-08-05T15:52:53.227Z,33.13
2022-08-05T15:55:24.603Z,31.69
2022-08-05T15:57:51.740Z,30.86
2022-08-05T16:00:26.159Z,31.11
2022-08-05T16:03:06.045Z,30.94
2022-08-05T16:05:32.899Z,31.08
2022-08-05T16:07:59.267Z,31.40
2022-08-05T16:10:26.860Z,31.66
2022-08-05T16:12:55.949Z,31.79
2022-08-05T16:15:23.014Z,31.75
2022-08-05T16:17:57.754Z,31.26
2022-08-05T16:20:25.831Z,31.43
2022-08-05T16:22:54.406Z,31.34
2022-08-05T16:25:20.813Z,31.44
2022-08-05T16:28:05.371Z,31.45
2022-08-05T16:30:32.871Z,31.31
2022-08-05T16:32:59.841Z,31.31
2022-08-05T16:35:28.401Z,31.10
2022-08-05T16:38:16.768Z,31.14
2022-08-05T16:40:47.740Z,31.11
2022-08-05T16:43:19.176Z,31.02
2022-08-05T16:46:07.051Z,31.01
2022-08-05T16:48:35.339Z,30.90
2022-08-05T16:51:03.841Z,30.70
2022-08-05T16:54:02.742Z,30.93
2022-08-05T16:56:23.396Z,30.76
2022-08-05T16:58:49.902Z,30.65
2022-08-05T17:01:16.452Z,30.63
2022-08-05T17:03:45.942Z,30.57
2022-08-05T17:06:12.915Z,30.53
2022-08-05T17:08:52.300Z,30.46
2022-08-05T17:11:20.850Z,30.46
2022-08-05T17:13:50.851Z,30.16
2022-08-05T17:16:33.054Z,29.96
2022-08-05T17:19:00.464Z,29.96
2022-08-05T17:21:36.306Z,29.74
2022-08-05T17:24:19.410Z,29.52
2022-08-05T17:26:56.553Z,29.15
2022-08-05T17:29:33.059Z,28.85
2022-08-05T17:32:06.623Z,28.86
2022-08-05T17:34:35.054Z,28.92
2022-08-05T17:37:01.942Z,28.84
2022-08-05T17:39:34.382Z,28.78
2022-08-05T17:42:18.236Z,28.51
2022-08-05T17:44:50.375Z,28.48
2022-08-05T17:47:22.404Z,28.27
2022-08-05T17:49:59.844Z,28.03
2022-08-05T17:52:31.836Z,27.92
2022-08-05T17:54:58.656Z,27.57
2022-08-05T17:57:25.036Z,27.39
2022-08-05T18:00:03.822Z,27.37
2022-08-05T18:02:34.238Z,27.22
2022-08-05T18:05:06.198Z,27.14
2022-08-05T18:07:41.288Z,26.77
2022-08-05T18:10:10.363Z,26.58
2022-08-05T18:12:37.973Z,26.62
2022-08-05T18:15:05.105Z,26.62
2022-08-05T18:17:59.194Z,26.49
2022-08-05T18:20:19.561Z,26.33
2022-08-05T18:22:57.506Z,26.22
2022-08-05T18:25:25.195Z,26.03
2022-08-05T18:27:59.017Z,25.81
2022-08-05T18:30:29.744Z,25.87
2022-08-05T18:33:00.388Z,25.79
2022-08-05T18:36:01.155Z,25.79
2022-08-05T18:38:19.362Z,25.67
2022-08-05T18:41:55.402Z,25.65
2022-08-05T18:43:42.700Z,25.61
2022-08-05T18:46:15.129Z,25.61
2022-08-05T18:48:42.130Z,25.29
2022-08-05T18:52:04.882Z,25.17
2022-08-05T18:54:16.444Z,24.92
2022-08-05T18:56:50.978Z,25.13
2022-08-05T18:59:43.000Z,25.11
2022-08-05T19:02:26.859Z,24.91
2022-08-05T19:05:01.408Z,24.82
2022-08-05T19:07:45.112Z,24.63
2022-08-05T19:10:13.263Z,24.68
2022-08-05T19:12:40.142Z,24.57
2022-08-05T19:15:25.054Z,24.63
2022-08-05T19:18:08.262Z,24.61
2022-08-05T19:20:36.836Z,24.41
2022-08-05T19:23:03.345Z,24.39
2022-08-05T19:25:38.170Z,24.27
2022-08-05T19:28:08.763Z,24.20
2022-08-05T19:30:35.503Z,24.32
2022-08-05T19:33:04.356Z,24.04
2022-08-05T19:35:57.472Z,24.09
2022-08-05T19:38:26.490Z,23.98
2022-08-05T19:40:53.818Z,24.00
2022-08-05T19:44:04.228Z,23.96
2022-08-05T19:46:06.801Z,23.95
2022-08-05T19:48:53.146Z,23.83
2022-08-05T19:52:04.524Z,23.79
2022-08-05T19:54:26.813Z,23.78
2022-08-05T19:56:55.391Z,23.94
2022-08-05T19:59:56.657Z,23.76
2022-08-05T20:02:08.804Z,23.79
2022-08-05T20:04:37.364Z,23.79
2022-08-05T20:07:03.889Z,23.67
2022-08-05T20:09:53.815Z,23.51
2022-08-05T20:12:22.702Z,23.49
2022-08-05T20:14:52.469Z,23.63
2022-08-05T20:17:23.458Z,23.45
2022-08-05T20:19:56.780Z,23.62
2022-08-05T20:22:25.031Z,23.35
2022-08-05T20:24:53.789Z,23.39
2022-08-05T20:27:21.012Z,23.32
2022-08-05T20:29:57.953Z,23.23
2022-08-05T20:32:27.404Z,23.16
2022-08-05T20:34:54.527Z,22.98
2022-08-05T20:38:04.999Z,22.73
2022-08-05T20:40:08.368Z,22.51
2022-08-05T20:42:34.773Z,22.23
2022-08-05T20:45:02.032Z,22.08
2022-08-05T20:47:31.832Z,22.03
2022-08-05T20:49:58.853Z,22.03
2022-08-05T20:52:25.662Z,22.04
2022-08-05T20:54:59.357Z,21.90
2022-08-05T20:57:42.213Z,21.84
2022-08-05T21:00:41.248Z,21.61
2022-08-05T21:03:04.479Z,21.58
2022-08-05T21:05:48.229Z,21.45
2022-08-05T21:08:28.226Z,21.39
2022-08-05T21:11:09.976Z,21.17
2022-08-05T21:13:55.682Z,21.03
2022-08-05T21:16:29.702Z,21.00
2022-08-05T21:19:01.440Z,20.77
2022-08-05T21:21:39.487Z,20.69
2022-08-05T21:24:12.851Z,20.65
2022-08-05T21:26:40.149Z,20.52
2022-08-05T21:29:08.071Z,20.60
2022-08-05T21:31:41.115Z,20.62
2022-08-05T21:34:08.547Z,20.56
2022-08-05T21:36:37.425Z,20.54
2022-08-05T21:39:03.891Z,20.59
2022-08-05T21:41:34.340Z,20.58
2022-08-05T21:44:04.162Z,20.50
2022-08-05T21:46:34.483Z,20.20
2022-08-05T21:49:02.385Z,20.32
2022-08-05T21:52:22.155Z,20.47
2022-08-05T21:54:27.934Z,20.47
2022-08-05T21:57:29.190Z,20.47
2022-08-05T22:00:02.087Z,20.28
2022-08-05T22:02:30.664Z,20.14
2022-08-05T22:04:58.798Z,20.19
2022-08-05T22:07:40.218Z,20.25
2022-08-05T22:10:12.428Z,20.28
2022-08-05T22:12:40.196Z,20.35
2022-08-05T22:15:16.905Z,20.20
2022-08-05T22:18:03.574Z,19.86
2022-08-05T22:20:30.403Z,20.01
2022-08-05T22:23:21.498Z,20.00
2022-08-05T22:26:09.865Z,19.92
2022-08-05T22:28:37.327Z,19.60
2022-08-05T22:31:05.518Z,19.56
2022-08-05T22:33:57.107Z,19.47
2022-08-05T22:36:19.312Z,18.98
2022-08-05T22:38:50.951Z,18.90
2022-08-05T22:42:05.123Z,18.86
2022-08-05T22:44:08.023Z,18.76
2022-08-05T22:46:40.047Z,18.64
2022-08-05T22:49:23.235Z,18.69
2022-08-05T22:52:06.643Z,18.80
2022-08-05T22:54:35.531Z,18.68
2022-08-05T22:57:03.540Z,18.71
2022-08-05T22:59:45.914Z,18.91
2022-08-05T23:02:16.942Z,19.00
2022-08-05T23:04:51.206Z,18.99
2022-08-05T23:07:18.313Z,19.13
2022-08-05T23:09:57.531Z,19.10
2022-08-05T23:12:32.825Z,19.16
2022-08-05T23:15:03.162Z,19.17
2022-08-05T23:17:34.542Z,19.03
2022-08-05T23:20:10.414Z,19.02
2022-08-05T23:22:44.034Z,18.92
2022-08-05T23:25:17.631Z,18.68
2022-08-05T23:28:01.445Z,18.51
2022-08-05T23:30:29.096Z,18.52
2022-08-05T23:32:57.737Z,18.45
2022-08-05T23:35:28.596Z,18.45
2022-08-05T23:38:00.991Z,18.37
2022-08-05T23:40:27.879Z,18.05
2022-08-05T23:42:54.288Z,18.11
2022-08-05T23:45:20.853Z,18.34
2022-08-05T23:47:53.912Z,18.33
2022-08-05T23:50:26.525Z,18.08
2022-08-05T23:52:54.992Z,17.91
2022-08-05T23:55:22.335Z,17.84
2022-08-05T23:57:52.853Z,17.89
